createdAt,value
2018-11-11T00:02:03.768Z,25.60
2018-11-11T00:04:33.613Z,27.03
2018-11-11T00:07:03.490Z,26.07
2018-11-11T00:09:33.564Z,25.47
2018-11-11T00:12:03.394Z,24.17
2018-11-11T00:14:33.249Z,23.90
2018-11-11T00:17:03.191Z,25.90
2018-11-11T00:19:33.098Z,27.53
2018-11-11T00:22:03.088Z,26.57
2018-11-11T00:24:32.873Z,27.50
2018-11-11T00:27:04.021Z,30.27
2018-11-11T00:29:33.794Z,34.13
2018-11-11T00:32:03.692Z,33.57
2018-11-11T00:34:33.695Z,32.90
2018-11-11T00:37:03.545Z,32.57
2018-11-11T00:39:33.480Z,32.60
2018-11-11T00:42:04.552Z,31.63
2018-11-11T00:44:34.474Z,33.30
2018-11-11T00:47:04.444Z,31.77
2018-11-11T00:49:34.378Z,30.17
2018-11-11T00:52:04.222Z,29.77
2018-11-11T00:54:34.040Z,30.70
2018-11-11T00:57:04.065Z,30.40
2018-11-11T00:59:34.133Z,30.33
2018-11-11T01:02:04.030Z,30.60
2018-11-11T01:04:34.652Z,31.60
2018-11-11T01:07:04.618Z,31.60
2018-11-11T01:09:34.546Z,32.20
2018-11-11T01:12:04.609Z,30.67
2018-11-11T01:14:34.620Z,30.87
2018-11-11T01:17:05.295Z,30.00
2018-11-11T01:19:35.266Z,28.50
2018-11-11T01:22:05.102Z,27.40
2018-11-11T01:24:35.054Z,26.67
2018-11-11T01:27:05.021Z,25.43
2018-11-11T01:29:34.876Z,24.33
2018-11-11T01:32:04.948Z,24.63
2018-11-11T01:34:34.846Z,24.63
2018-11-11T01:37:04.696Z,24.07
2018-11-11T01:39:34.502Z,23.93
2018-11-11T01:42:04.376Z,23.60
2018-11-11T01:44:34.410Z,23.03
2018-11-11T01:47:04.242Z,22.03
2018-11-11T01:49:34.130Z,22.63
2018-11-11T01:52:03.892Z,21.60
2018-11-11T01:54:33.836Z,22.03
2018-11-11T01:57:03.878Z,21.83
2018-11-11T01:59:33.683Z,22.10
2018-11-11T02:02:03.608Z,22.73
2018-11-11T02:04:33.414Z,23.03
2018-11-11T02:07:03.234Z,22.60
2018-11-11T02:09:33.287Z,23.23
2018-11-11T02:12:03.397Z,24.83
2018-11-11T02:14:33.250Z,27.37
2018-11-11T02:17:03.066Z,30.17
2018-11-11T02:19:33.683Z,29.60
2018-11-11T02:22:03.510Z,32.63
2018-11-11T02:24:33.425Z,32.57
2018-11-11T02:27:03.302Z,40.50
2018-11-11T02:29:33.186Z,42.50
2018-11-11T02:32:03.067Z,49.43
2018-11-11T02:34:32.972Z,45.90
2018-11-11T02:37:02.790Z,48.40
2018-11-11T02:39:32.660Z,49.73
2018-11-11T02:42:02.560Z,45.27
2018-11-11T02:44:32.418Z,62.07
2018-11-11T02:47:02.307Z,78.77
2018-11-11T02:49:32.114Z,70.97
2018-11-11T02:52:01.933Z,56.23
2018-11-11T02:54:31.785Z,59.10
2018-11-11T02:57:01.674Z,56.43
2018-11-11T02:59:31.487Z,56.30
2018-11-11T03:02:01.364Z,59.47
2018-11-11T03:04:31.227Z,60.40
2018-11-11T03:07:01.175Z,59.67
2018-11-11T03:09:31.099Z,80.60
2018-11-11T03:12:00.957Z,114.87
2018-11-11T03:14:30.857Z,110.17
2018-11-11T03:17:00.667Z,95.23
2018-11-11T03:19:30.577Z,57.03
2018-11-11T03:22:00.445Z,46.60
2018-11-11T03:24:30.584Z,39.47
2018-11-11T03:27:00.538Z,40.57
2018-11-11T03:29:30.355Z,36.73
2018-11-11T03:32:00.157Z,36.03
2018-11-11T03:34:29.939Z,39.63
2018-11-11T03:36:59.737Z,56.80
2018-11-11T03:39:29.693Z,46.07
2018-11-11T03:41:59.777Z,43.57
2018-11-11T03:44:29.611Z,42.77
2018-11-11T03:46:59.441Z,46.27
2018-11-11T03:49:29.262Z,53.53
2018-11-11T03:51:59.061Z,45.40
2018-11-11T03:54:28.873Z,79.80
2018-11-11T03:56:58.701Z,53.30
2018-11-11T03:59:28.510Z,47.80
2018-11-11T04:01:58.351Z,55.47
2018-11-11T04:04:28.293Z,44.37
2018-11-11T04:06:58.223Z,39.70
2018-11-11T04:09:28.139Z,36.73
2018-11-11T04:11:57.916Z,35.97
2018-11-11T04:14:27.749Z,35.23
2018-11-11T04:16:57.525Z,38.87
2018-11-11T04:19:27.513Z,36.13
2018-11-11T04:21:57.523Z,33.87
2018-11-11T04:24:27.329Z,37.20
2018-11-11T04:26:57.101Z,39.10
2018-11-11T04:29:26.984Z,39.50
2018-11-11T04:31:56.923Z,44.90
2018-11-11T04:34:26.703Z,43.13
2018-11-11T04:36:56.527Z,45.23
2018-11-11T04:39:26.380Z,41.17
2018-11-11T04:41:56.254Z,40.87
2018-11-11T04:44:26.137Z,40.50
2018-11-11T04:46:55.962Z,33.60
2018-11-11T04:49:25.994Z,30.90
2018-11-11T04:51:55.837Z,30.03
2018-11-11T04:54:25.711Z,28.00
2018-11-11T04:56:55.565Z,26.80
2018-11-11T04:59:25.431Z,26.33
2018-11-11T05:01:55.323Z,25.23
2018-11-11T05:04:25.285Z,24.70
2018-11-11T05:06:55.264Z,25.63
2018-11-11T05:09:25.056Z,25.43
2018-11-11T05:11:54.825Z,24.10
2018-11-11T05:14:24.630Z,23.27
2018-11-11T05:16:54.444Z,25.57
2018-11-11T05:19:24.265Z,25.80
2018-11-11T05:21:54.177Z,27.20
2018-11-11T05:24:24.122Z,28.77
2018-11-11T05:26:54.030Z,31.70
2018-11-11T05:29:23.829Z,32.37
2018-11-11T05:31:53.759Z,32.50
2018-11-11T05:34:23.557Z,33.30
2018-11-11T05:36:53.369Z,33.17
2018-11-11T05:39:23.400Z,33.30
2018-11-11T05:41:53.232Z,33.77
2018-11-11T05:44:23.087Z,37.00
2018-11-11T05:46:52.885Z,33.20
2018-11-11T05:49:23.108Z,32.47
2018-11-11T05:51:52.851Z,31.87
2018-11-11T05:54:22.676Z,32.30
2018-11-11T05:56:52.453Z,30.10
2018-11-11T05:59:22.216Z,29.50
2018-11-11T06:01:52.100Z,29.13
2018-11-11T06:04:21.998Z,30.33
2018-11-11T06:06:51.820Z,33.43
2018-11-11T06:09:21.634Z,33.63
2018-11-11T06:11:51.450Z,36.77
2018-11-11T06:14:21.198Z,40.97
2018-11-11T06:16:51.075Z,41.03
2018-11-11T06:19:20.958Z,42.47
2018-11-11T06:21:50.760Z,42.53
2018-11-11T06:24:20.914Z,41.93
2018-11-11T06:26:50.804Z,42.13
2018-11-11T06:29:20.714Z,44.17
2018-11-11T06:31:50.532Z,40.37
2018-11-11T06:34:20.485Z,39.13
2018-11-11T06:36:51.173Z,36.50
2018-11-11T06:39:21.212Z,35.60
2018-11-11T06:41:51.080Z,32.57
2018-11-11T06:44:20.917Z,29.83
2018-11-11T06:46:50.938Z,31.90
2018-11-11T06:49:20.792Z,30.67
2018-11-11T06:51:50.689Z,27.70
2018-11-11T06:54:20.660Z,27.87
2018-11-11T06:56:50.586Z,28.97
2018-11-11T06:59:20.514Z,28.37
2018-11-11T07:01:50.445Z,26.90
2018-11-11T07:04:20.322Z,26.57
2018-11-11T07:06:50.260Z,25.00
2018-11-11T07:09:20.091Z,26.13
2018-11-11T07:11:49.960Z,25.43
2018-11-11T07:14:19.835Z,25.50
2018-11-11T07:16:49.654Z,25.10
2018-11-11T07:19:19.519Z,24.93
2018-11-11T07:21:49.377Z,24.80
2018-11-11T07:24:19.284Z,25.27
2018-11-11T07:26:49.261Z,24.67
2018-11-11T07:29:19.133Z,25.93
2018-11-11T07:31:48.979Z,24.40
2018-11-11T07:34:18.803Z,25.80
2018-11-11T07:36:48.650Z,25.50
2018-11-11T07:39:18.452Z,25.13
2018-11-11T07:41:48.279Z,24.53
2018-11-11T07:44:18.099Z,24.87
2018-11-11T07:46:47.883Z,24.63
2018-11-11T07:49:17.696Z,25.70
2018-11-11T07:51:47.572Z,26.20
2018-11-11T07:54:17.665Z,24.87
2018-11-11T07:56:47.428Z,24.77
2018-11-11T07:59:17.247Z,24.70
2018-11-11T08:01:47.216Z,23.93
2018-11-11T08:04:17.108Z,25.53
2018-11-11T08:06:46.926Z,24.60
2018-11-11T08:09:16.715Z,22.87
2018-11-11T08:12:04.060Z,24.00
2018-11-11T08:14:33.879Z,23.83
2018-11-11T08:17:04.224Z,23.03
2018-11-11T08:19:34.084Z,23.37
2018-11-11T08:22:03.926Z,23.40
2018-11-11T08:24:33.759Z,24.70
2018-11-11T08:27:03.774Z,25.07
2018-11-11T08:29:33.651Z,26.10
2018-11-11T08:32:03.553Z,27.47
2018-11-11T08:34:33.541Z,27.13
2018-11-11T08:37:03.348Z,26.43
2018-11-11T08:39:33.275Z,28.33
2018-11-11T08:42:03.059Z,28.10
2018-11-11T08:44:32.876Z,23.33
2018-11-11T08:47:02.698Z,24.07
2018-11-11T08:49:32.542Z,23.30
2018-11-11T08:52:02.473Z,25.63
2018-11-11T08:54:32.285Z,25.27
2018-11-11T08:57:02.117Z,24.50
2018-11-11T08:59:31.975Z,24.07
2018-11-11T09:02:01.798Z,22.17
2018-11-11T09:04:31.739Z,20.33
2018-11-11T09:07:01.549Z,21.43
2018-11-11T09:09:31.421Z,20.97
2018-11-11T09:12:01.237Z,22.83
2018-11-11T09:14:31.065Z,18.03
2018-11-11T09:17:00.966Z,16.83
2018-11-11T09:19:30.801Z,13.47
2018-11-11T09:22:00.651Z,15.27
2018-11-11T09:24:30.516Z,14.73
2018-11-11T09:27:00.355Z,13.37
2018-11-11T09:29:30.452Z,13.10
2018-11-11T09:32:00.383Z,14.63
2018-11-11T09:34:30.169Z,13.13
2018-11-11T09:37:00.023Z,12.03
2018-11-11T09:39:29.835Z,12.00
2018-11-11T09:41:59.699Z,11.50
2018-11-11T09:44:29.512Z,10.80
2018-11-11T09:46:59.430Z,10.50
2018-11-11T09:49:29.233Z,9.93
2018-11-11T09:51:59.033Z,11.00
2018-11-11T09:54:28.980Z,11.10
2018-11-11T09:56:58.939Z,10.80
2018-11-11T09:59:28.883Z,10.63
2018-11-11T10:02:55.349Z,10.17
2018-11-11T10:05:28.867Z,9.87
2018-11-11T10:08:04.785Z,10.20
2018-11-11T10:10:38.846Z,10.70
2018-11-11T10:13:14.627Z,11.93
2018-11-11T10:15:57.957Z,11.50
2018-11-11T10:18:37.883Z,10.97
2018-11-11T10:21:16.923Z,11.60
2018-11-11T10:23:54.510Z,13.63
2018-11-11T10:26:35.057Z,15.50
2018-11-11T10:29:14.041Z,14.67
2018-11-11T10:32:18.399Z,16.53
2018-11-11T10:34:53.537Z,17.97
2018-11-11T10:37:29.673Z,17.93
2018-11-11T10:41:02.561Z,18.47
2018-11-11T10:43:45.044Z,18.90
2018-11-11T10:46:30.818Z,15.10
2018-11-11T10:49:04.228Z,13.33
2018-11-11T10:51:34.178Z,10.93
2018-11-11T10:54:04.269Z,10.40
2018-11-11T10:56:34.396Z,10.43
2018-11-11T10:59:04.412Z,7.80
2018-11-11T11:01:39.247Z,8.93
2018-11-11T11:04:09.098Z,10.90
2018-11-11T11:06:44.065Z,9.87
2018-11-11T11:09:14.941Z,10.23
2018-11-11T11:11:45.264Z,9.13
2018-11-11T11:14:15.237Z,9.67
2018-11-11T11:16:45.248Z,9.43
2018-11-11T11:19:15.344Z,12.20
2018-11-11T11:21:45.183Z,13.60
2018-11-11T11:24:15.056Z,12.87
2018-11-11T11:26:45.052Z,12.93
2018-11-11T11:29:14.889Z,14.00
2018-11-11T11:31:44.902Z,14.37
2018-11-11T11:34:14.811Z,13.10
2018-11-11T11:36:45.917Z,13.07
2018-11-11T11:39:15.769Z,10.87
2018-11-11T11:41:45.629Z,12.17
2018-11-11T11:44:15.505Z,11.40
2018-11-11T11:46:45.532Z,11.60
2018-11-11T11:49:15.398Z,12.37
2018-11-11T11:51:45.482Z,13.23
2018-11-11T11:54:15.628Z,14.33
2018-11-11T11:56:45.470Z,13.87
2018-11-11T11:59:15.402Z,13.07
2018-11-11T12:01:45.412Z,14.63
2018-11-11T12:04:15.264Z,13.17
2018-11-11T12:10:21.168Z,12.77
2018-11-11T12:12:51.016Z,13.00
2018-11-11T12:15:20.928Z,13.10
2018-11-11T12:17:51.128Z,13.70
2018-11-11T12:20:20.984Z,14.63
2018-11-11T12:22:51.032Z,14.47
2018-11-11T12:25:20.944Z,13.33
2018-11-11T12:27:50.832Z,13.37
2018-11-11T12:30:20.767Z,12.17
2018-11-11T12:32:50.808Z,12.00
2018-11-11T12:35:20.882Z,12.17
2018-11-11T12:37:50.753Z,11.20
2018-11-11T12:40:20.886Z,10.70
2018-11-11T12:42:50.832Z,10.80
2018-11-11T12:45:20.716Z,10.93
2018-11-11T12:47:50.716Z,11.33
2018-11-11T12:50:20.592Z,11.10
2018-11-11T12:52:50.356Z,12.20
2018-11-11T12:55:20.346Z,11.70
2018-11-11T12:57:50.321Z,11.70
2018-11-11T13:00:20.202Z,11.30
2018-11-11T13:02:50.078Z,9.70
2018-11-11T13:05:19.948Z,8.87
2018-11-11T13:07:49.810Z,8.33
2018-11-11T13:10:20.308Z,9.13
2018-11-11T13:12:50.212Z,9.80
2018-11-11T13:15:20.073Z,6.10
2018-11-11T13:17:49.905Z,4.20
2018-11-11T13:20:20.349Z,2.77
2018-11-11T13:22:50.456Z,2.97
2018-11-11T13:25:20.487Z,3.03
2018-11-11T13:27:50.270Z,3.20
2018-11-11T13:30:20.356Z,2.93
2018-11-11T13:32:50.166Z,3.00
2018-11-11T13:35:20.204Z,3.40
2018-11-11T13:37:51.178Z,3.67
2018-11-11T13:40:21.177Z,5.90
2018-11-11T13:42:51.030Z,6.07
2018-11-11T13:45:22.305Z,8.07
2018-11-11T13:47:52.597Z,8.43
2018-11-11T13:50:23.974Z,8.87
2018-11-11T13:52:53.887Z,9.13
2018-11-11T13:55:23.765Z,9.63
2018-11-11T13:57:53.582Z,9.50
2018-11-11T14:00:25.562Z,9.40
2018-11-11T14:02:55.826Z,9.27
2018-11-11T14:05:25.817Z,9.70
2018-11-11T14:07:55.665Z,8.97
2018-11-11T14:10:25.572Z,10.37
2018-11-11T14:12:55.373Z,9.67
2018-11-11T14:15:26.005Z,8.80
2018-11-11T14:17:56.389Z,9.03
2018-11-11T14:20:26.950Z,9.93
2018-11-11T14:22:57.580Z,9.43
2018-11-11T14:25:29.718Z,9.67
2018-11-11T14:27:59.523Z,9.00
2018-11-11T14:30:29.562Z,9.43
2018-11-11T14:32:59.878Z,8.53
2018-11-11T14:35:29.726Z,8.60
2018-11-11T14:37:59.609Z,9.70
2018-11-11T14:40:30.393Z,9.90
2018-11-11T14:43:00.305Z,9.40
2018-11-11T14:45:30.153Z,9.83
2018-11-11T14:47:59.991Z,9.67
2018-11-11T14:50:29.899Z,10.10
2018-11-11T14:52:59.805Z,9.20
2018-11-11T14:55:30.611Z,9.83
2018-11-11T14:58:01.522Z,10.13
2018-11-11T15:00:33.683Z,10.43
2018-11-11T15:03:12.379Z,9.90
2018-11-11T15:05:42.198Z,10.20
2018-11-11T15:08:12.156Z,10.60
2018-11-11T15:10:42.180Z,10.33
2018-11-11T15:13:13.062Z,10.17
2018-11-11T15:15:43.021Z,10.00
2018-11-11T15:18:12.955Z,9.87
2018-11-11T15:20:42.872Z,10.67
2018-11-11T15:23:12.967Z,10.37
2018-11-11T15:25:42.813Z,10.50
2018-11-11T15:28:12.649Z,11.03
2018-11-11T15:30:42.783Z,11.47
2018-11-11T15:33:12.679Z,10.87
2018-11-11T15:35:42.597Z,10.73
2018-11-11T15:38:12.382Z,11.37
2018-11-11T15:40:42.182Z,12.23
2018-11-11T15:43:12.113Z,12.80
2018-11-11T15:45:41.994Z,14.23
2018-11-11T15:48:11.844Z,13.13
2018-11-11T15:50:41.644Z,13.33
2018-11-11T15:53:11.422Z,12.93
2018-11-11T15:55:41.424Z,12.40
2018-11-11T15:58:11.303Z,11.10
2018-11-11T16:00:42.709Z,10.50
2018-11-11T16:03:12.576Z,10.30
2018-11-11T16:05:42.364Z,9.37
2018-11-11T16:08:12.227Z,8.80
2018-11-11T16:10:42.066Z,9.80
2018-11-11T16:13:11.965Z,9.53
2018-11-11T16:15:42.305Z,11.40
2018-11-11T16:18:13.558Z,11.07
2018-11-11T16:20:43.445Z,11.10
2018-11-11T16:23:13.354Z,11.27
2018-11-11T16:25:43.322Z,12.07
2018-11-11T16:28:13.293Z,12.90
2018-11-11T16:37:54.769Z,13.23
2018-11-11T16:40:26.556Z,14.97
2018-11-11T16:42:56.899Z,15.23
2018-11-11T16:45:28.614Z,15.70
2018-11-11T16:47:58.618Z,17.00
2018-11-11T16:50:31.500Z,17.27
2018-11-11T16:53:03.990Z,17.27
2018-11-11T16:55:34.970Z,17.67
2018-11-11T16:58:05.004Z,19.07
2018-11-11T17:00:36.150Z,17.53
2018-11-11T17:03:07.983Z,18.43
2018-11-11T17:05:38.545Z,17.67
2018-11-11T17:08:08.470Z,16.90
2018-11-11T17:10:39.234Z,16.00
2018-11-11T17:13:11.474Z,16.03
2018-11-11T17:15:41.377Z,16.77
2018-11-11T17:18:11.201Z,16.20
2018-11-11T17:20:41.341Z,16.67
2018-11-11T17:23:13.314Z,16.40
2018-11-11T17:25:46.960Z,17.40
2018-11-11T17:28:17.925Z,18.00
2018-11-11T17:30:48.416Z,17.83
2018-11-11T17:33:18.376Z,17.07
2018-11-11T17:35:50.090Z,16.60
2018-11-11T17:38:19.946Z,15.20
2018-11-11T17:40:49.821Z,15.67
2018-11-11T17:43:19.624Z,15.40
2018-11-11T17:45:49.435Z,17.80
2018-11-11T17:48:19.372Z,16.10
2018-11-11T17:50:49.374Z,13.63
2018-11-11T17:53:19.200Z,13.07
2018-11-11T17:55:49.189Z,11.87
2018-11-11T17:58:19.230Z,12.33
2018-11-11T18:00:49.085Z,12.07
2018-11-11T18:03:18.970Z,11.60
2018-11-11T18:05:48.983Z,12.53
2018-11-11T18:08:18.793Z,13.00
2018-11-11T18:10:48.826Z,13.13
2018-11-11T18:13:18.794Z,12.93
2018-11-11T18:15:48.632Z,13.07
2018-11-11T18:18:18.517Z,13.60
2018-11-11T18:20:48.379Z,12.17
2018-11-11T18:23:18.236Z,12.97
2018-11-11T18:29:24.055Z,13.40
2018-11-11T18:31:54.228Z,13.33
2018-11-11T18:34:24.130Z,12.57
2018-11-11T18:36:54.341Z,13.20
2018-11-11T18:39:24.533Z,13.60
2018-11-11T18:41:54.697Z,12.90
2018-11-11T18:44:24.645Z,13.67
2018-11-11T18:46:54.585Z,12.93
2018-11-11T18:49:25.142Z,11.90
2018-11-11T18:51:55.021Z,12.17
2018-11-11T18:54:25.395Z,12.30
2018-11-11T18:56:55.353Z,12.90
2018-11-11T18:59:25.529Z,13.37
2018-11-11T19:01:55.443Z,14.37
2018-11-11T19:04:25.337Z,12.87
2018-11-11T19:06:55.217Z,12.50
2018-11-11T19:09:25.173Z,13.47
2018-11-11T19:11:55.171Z,14.20
2018-11-11T19:14:25.038Z,12.30
2018-11-11T19:16:55.023Z,12.80
2018-11-11T19:19:25.219Z,14.93
2018-11-11T19:21:55.103Z,16.67
2018-11-11T19:24:25.010Z,17.20
2018-11-11T19:26:55.011Z,14.50
2018-11-11T19:29:24.885Z,12.93
2018-11-11T19:31:54.769Z,12.37
2018-11-11T19:34:24.616Z,12.77
2018-11-11T19:36:54.445Z,13.07
2018-11-11T19:39:24.235Z,12.73
2018-11-11T19:41:54.142Z,13.17
2018-11-11T19:44:24.083Z,13.63
2018-11-11T19:46:54.363Z,12.90
2018-11-11T19:49:25.146Z,13.60
2018-11-11T19:51:55.082Z,12.50
2018-11-11T19:54:24.892Z,11.53
2018-11-11T19:56:54.724Z,12.80
2018-11-11T19:59:24.678Z,12.50
2018-11-11T20:01:54.876Z,12.07
2018-11-11T20:04:24.741Z,11.93
2018-11-11T20:06:54.738Z,11.70
2018-11-11T20:09:24.665Z,12.07
2018-11-11T20:11:54.567Z,12.00
2018-11-11T20:14:25.258Z,12.40
2018-11-11T20:16:55.106Z,13.03
2018-11-11T20:19:24.979Z,12.63
2018-11-11T20:21:54.812Z,12.80
2018-11-11T20:24:24.904Z,12.60
2018-11-11T20:26:55.017Z,13.30
2018-11-11T20:29:24.848Z,12.60
2018-11-11T20:31:54.686Z,13.97
2018-11-11T20:34:24.576Z,12.37
2018-11-11T20:36:54.480Z,12.90
2018-11-11T20:39:24.318Z,12.43
2018-11-11T20:41:54.478Z,13.07
2018-11-11T20:44:24.327Z,13.33
2018-11-11T20:46:54.168Z,13.20
2018-11-11T20:49:23.980Z,15.53
2018-11-11T20:51:53.826Z,14.03
2018-11-11T20:54:23.604Z,13.13
2018-11-11T20:56:53.462Z,12.63
2018-11-11T20:59:23.532Z,11.70
2018-11-11T21:01:53.330Z,11.33
2018-11-11T21:04:23.194Z,11.87
2018-11-11T21:06:52.996Z,11.40
2018-11-11T21:09:22.822Z,12.00
2018-11-11T21:11:52.692Z,13.20
2018-11-11T21:14:22.524Z,12.60
2018-11-11T21:16:52.329Z,12.43
2018-11-11T21:19:22.203Z,12.03
2018-11-11T21:21:52.235Z,12.00
2018-11-11T21:24:22.075Z,11.50
2018-11-11T21:26:51.954Z,11.50
2018-11-11T21:29:21.774Z,12.20
2018-11-11T21:31:51.669Z,11.97
2018-11-11T21:34:21.501Z,12.83
2018-11-11T21:36:51.312Z,10.67
2018-11-11T21:39:21.158Z,10.97
2018-11-11T21:41:51.210Z,10.47
2018-11-11T21:44:21.052Z,11.40
2018-11-11T21:46:51.141Z,11.57
2018-11-11T21:49:21.150Z,11.63
2018-11-11T21:51:50.960Z,11.30
2018-11-11T21:54:20.898Z,11.07
2018-11-11T21:56:50.918Z,10.97
2018-11-11T21:59:20.816Z,9.70
2018-11-11T22:01:50.658Z,9.27
2018-11-11T22:04:20.548Z,9.50
2018-11-11T22:06:50.528Z,10.07
2018-11-11T22:09:20.345Z,10.20
2018-11-11T22:11:50.366Z,10.90
2018-11-11T22:14:20.216Z,9.73
2018-11-11T22:16:50.005Z,9.50
2018-11-11T22:19:19.802Z,10.17
2018-11-11T22:21:49.584Z,10.57
2018-11-11T22:24:19.372Z,10.60
2018-11-11T22:26:49.144Z,9.90
2018-11-11T22:29:18.985Z,10.63
2018-11-11T22:31:48.984Z,9.93
2018-11-11T22:34:18.818Z,11.10
2018-11-11T22:36:48.712Z,12.53
2018-11-11T22:39:18.471Z,18.57
2018-11-11T22:41:48.256Z,23.70
2018-11-11T22:44:18.062Z,29.63
2018-11-11T22:46:47.852Z,29.70
2018-11-11T22:49:17.748Z,25.10
2018-11-11T22:51:47.494Z,19.07
2018-11-11T22:54:17.311Z,15.73
2018-11-11T22:56:47.136Z,12.83
2018-11-11T22:59:16.902Z,11.43
2018-11-11T23:01:46.796Z,11.43
2018-11-11T23:04:16.612Z,10.50
2018-11-11T23:06:46.454Z,10.07
2018-11-11T23:09:16.340Z,10.80
2018-11-11T23:11:46.110Z,11.97
2018-11-11T23:14:15.892Z,11.80
2018-11-11T23:16:45.713Z,15.63
2018-11-11T23:19:15.790Z,16.73
2018-11-11T23:21:45.576Z,15.10
2018-11-11T23:24:15.449Z,12.00
2018-11-11T23:26:45.530Z,12.70
2018-11-11T23:29:15.355Z,12.00
2018-11-11T23:31:45.184Z,13.10
2018-11-11T23:34:15.894Z,13.67
2018-11-11T23:36:45.896Z,14.80
2018-11-11T23:39:15.902Z,15.83
2018-11-11T23:41:45.677Z,14.67
2018-11-11T23:44:15.422Z,15.83
2018-11-11T23:46:45.273Z,16.17
2018-11-11T23:49:15.282Z,15.23
2018-11-11T23:51:45.061Z,14.53
2018-11-11T23:54:14.871Z,14.97
2018-11-11T23:56:44.696Z,16.77
2018-11-11T23:59:14.574Z,14.63
